Time;durP1;ratioP1;P1;durP2;ratioP2;P2;SDS_P1;SDS_P2;PMS_P1;PMS_P2;Temp;Humidity;BMP_temperature;BMP_pressure;BME280_temperature;BME280_humidity;BME280_pressure;Samples;Min_cycle;Max_cycle;Signal;HPM_P1;HPM_P2
2022/11/30 00:01:56;;;;;;;;;;;;;;;;;;5018674;28;7154;-71
2022/11/30 00:04:22;;;;;;;;;;;;;;;;;;5018210;28;7139;-71
2022/11/30 00:09:16;;;;;;;;;;;;;;;;;;5035582;28;7405;-79
2022/11/30 00:11:42;;;;;;;;;;;;;;;;;;5019312;28;8436;-79
2022/11/30 00:14:23;;;;;;;;;;;;;;;;;;5038657;28;6960;-78
2022/11/30 00:16:49;;;;;;;;;;;;;;;;;;5037847;28;7178;-78
2022/11/30 00:19:24;;;;;;;;;;;;;;;;;;5037602;28;7170;-79
2022/11/30 00:21:49;;;;;;;;;;;;;;;;;;5037602;28;7415;-79
2022/11/30 00:24:15;;;;;;;;;;;;;;;;;;5037621;28;7229;-79
2022/11/30 00:29:43;;;;;;;;;;;;;;;;;;5037224;28;7009;-79
2022/11/30 00:32:41;;;;;;;;;;;;;;;;;;5037403;28;7128;-78
2022/11/30 00:35:07;;;;;;;;;;;;;;;;;;5038241;28;7471;-79
2022/11/30 00:38:06;;;;;;;;;;;;;;;;;;5037232;28;7173;-79
2022/11/30 00:40:31;;;;;;;;;;;;;;;;;;5036828;28;7404;-78
2022/11/30 00:46:00;;;;;;;;;;;;;;;;;;5037053;28;6687;-78
2022/11/30 00:49:03;;;;;;;;;;;;;;;;;;5037136;28;7308;-78
2022/11/30 00:51:28;;;;;;;;;;;;;;;;;;5019474;28;9521;-78
2022/11/30 00:53:54;;;;;;;;;;;;;;;;;;5019896;28;8438;-78
2022/11/30 00:56:20;;;;;;;;;;;;;;;;;;5037683;28;7260;-79
2022/11/30 00:58:46;;;;;;;;;;;;;;;;;;5035988;28;7142;-78
2022/11/30 01:01:11;;;;;;;;;;;;;;;;;;5036677;28;6930;-78
2022/11/30 01:03:55;;;;;;;;;;;;;;;;;;5036870;28;7423;-78
2022/11/30 01:09:23;;;;;;;;;;;;;;;;;;5033817;28;6779;-77
2022/11/30 01:11:49;;;;;;;;;;;;;;;;;;5037621;28;7089;-79
2022/11/30 01:17:44;;;;;;;;;;;;;;;;;;5036442;28;6932;-78
2022/11/30 01:20:10;;;;;;;;;;;;;;;;;;5036448;28;7057;-78
2022/11/30 01:22:36;;;;;;;;;;;;;;;;;;5036583;28;7105;-79
2022/11/30 01:25:02;;;;;;;;;;;;;;;;;;5036543;28;7769;-79
2022/11/30 01:27:27;;;;;;;;;;;;;;;;;;5018528;28;8420;-79
2022/11/30 01:29:53;;;;;;;;;;;;;;;;;;5036319;28;7170;-79
2022/11/30 01:32:18;;;;;;;;;;;;;;;;;;5036361;28;7038;-79
2022/11/30 01:35:02;;;;;;;;;;;;;;;;;;5036311;28;7140;-79
2022/11/30 01:37:28;;;;;;;;;;;;;;;;;;5036163;28;7203;-79
2022/11/30 01:39:54;;;;;;;;;;;;;;;;;;5035839;28;6988;-78
2022/11/30 01:42:31;;;;;;;;;;;;;;;;;;5036079;28;7177;-79
2022/11/30 01:44:59;;;;;;;;;;;;;;;;;;5035987;28;7087;-80
2022/11/30 01:47:40;;;;;;;;;;;;;;;;;;5035688;28;7202;-78
2022/11/30 01:50:12;;;;;;;;;;;;;;;;;;5035434;28;7053;-78
2022/11/30 01:52:41;;;;;;;;;;;;;;;;;;5035549;28;7036;-79
2022/11/30 01:55:25;;;;;;;;;;;;;;;;;;5035505;28;7058;-78
2022/11/30 01:57:56;;;;;;;;;;;;;;;;;;5035843;28;7126;-79
2022/11/30 02:00:23;;;;;;;;;;;;;;;;;;5035626;28;7205;-79
2022/11/30 02:05:52;;;;;;;;;;;;;;;;;;5035425;28;6682;-79
2022/11/30 02:08:18;;;;;;;;;;;;;;;;;;5034097;28;7078;-78
2022/11/30 02:13:50;;;;;;;;;;;;;;;;;;5035385;28;6904;-79
2022/11/30 02:16:27;;;;;;;;;;;;;;;;;;5035417;28;7126;-78
2022/11/30 02:19:11;;;;;;;;;;;;;;;;;;5035472;28;7427;-78
2022/11/30 02:21:40;;;;;;;;;;;;;;;;;;5035070;28;7139;-78
2022/11/30 02:24:11;;;;;;;;;;;;;;;;;;5018161;28;8420;-78
2022/11/30 02:29:47;;;;;;;;;;;;;;;;;;5034928;28;6917;-78
2022/11/30 02:32:24;;;;;;;;;;;;;;;;;;5035096;28;6884;-78
2022/11/30 02:37:56;;;;;;;;;;;;;;;;;;5034896;28;6921;-78
2022/11/30 02:40:23;;;;;;;;;;;;;;;;;;5035142;28;7157;-78
2022/11/30 02:42:51;;;;;;;;;;;;;;;;;;5035036;28;7316;-78
2022/11/30 02:48:26;;;;;;;;;;;;;;;;;;5035045;28;6927;-78
2022/11/30 02:50:55;;;;;;;;;;;;;;;;;;5034785;28;6886;-78
2022/11/30 02:56:14;;;;;;;;;;;;;;;;;;5035464;28;6941;-79
2022/11/30 02:58:40;;;;;;;;;;;;;;;;;;5034779;28;7021;-78
2022/11/30 03:01:06;;;;;;;;;;;;;;;;;;5034648;28;7227;-78
2022/11/30 03:03:47;;;;;;;;;;;;;;;;;;5034818;28;7433;-78
2022/11/30 03:06:12;;;;;;;;;;;;;;;;;;5034511;28;7196;-78
2022/11/30 03:08:38;;;;;;;;;;;;;;;;;;5028513;28;7108;-79
2022/11/30 03:14:03;;;;;;;;;;;;;;;;;;5035422;28;7038;-70
2022/11/30 03:22:34;;;;;;;;;;;;;;;;;;5035615;28;7033;-70
2022/11/30 03:25:00;;;;;;;;;;;;;;;;;;5038828;28;7128;-70
2022/11/30 03:27:25;;;;;;;;;;;;;;;;;;5020798;28;8456;-70
2022/11/30 03:32:59;;;;;;;;;;;;;;;;;;5038314;28;6670;-70
2022/11/30 03:35:24;;;;;;;;;;;;;;;;;;5038850;28;7198;-82
2022/11/30 03:37:50;;;;;;;;;;;;;;;;;;5038185;28;6946;-68
2022/11/30 03:40:15;;;;;;;;;;;;;;;;;;5037814;28;7280;-68
2022/11/30 03:42:46;;;;;;;;;;;;;;;;;;5038438;28;7173;-68
2022/11/30 03:45:12;;;;;;;;;;;;;;;;;;5038275;28;7001;-68
2022/11/30 03:47:37;;;;;;;;;;;;;;;;;;5037595;28;7378;-68
2022/11/30 03:50:03;;;;;;;;;;;;;;;;;;5018835;28;7027;-68
2022/11/30 03:53:01;;;;;;;;;;;;;;;;;;5018454;28;7445;-68
2022/11/30 03:55:26;;;;;;;;;;;;;;;;;;5018356;28;6878;-68
2022/11/30 03:58:08;;;;;;;;;;;;;;;;;;5019464;28;7446;-68
2022/11/30 04:00:35;;;;;;;;;;;;;;;;;;5018200;28;6976;-68
2022/11/30 04:03:01;;;;;;;;;;;;;;;;;;5018198;28;7398;-68
2022/11/30 04:05:30;;;;;;;;;;;;;;;;;;5000955;28;7184;-68
2022/11/30 04:07:56;;;;;;;;;;;;;;;;;;5018096;28;8486;-68
2022/11/30 04:10:23;;;;;;;;;;;;;;;;;;5017638;28;7366;-68
2022/11/30 04:16:13;;;;;;;;;;;;;;;;;;5017860;28;6682;-68
2022/11/30 04:18:39;;;;;;;;;;;;;;;;;;5017864;28;7371;-68
2022/11/30 04:21:06;;;;;;;;;;;;;;;;;;5017815;28;7169;-68
2022/11/30 04:26:34;;;;;;;;;;;;;;;;;;5017719;28;6988;-68
2022/11/30 04:28:59;;;;;;;;;;;;;;;;;;5017641;28;7477;-68
2022/11/30 04:31:40;;;;;;;;;;;;;;;;;;5017752;28;7085;-68
2022/11/30 04:34:06;;;;;;;;;;;;;;;;;;5017440;28;7160;-68
2022/11/30 04:36:31;;;;;;;;;;;;;;;;;;5000070;28;8641;-68
2022/11/30 04:39:00;;;;;;;;;;;;;;;;;;5017160;28;6996;-68
2022/11/30 04:41:41;;;;;;;;;;;;;;;;;;5017505;28;6975;-68
2022/11/30 04:44:06;;;;;;;;;;;;;;;;;;5017969;28;7066;-68
2022/11/30 04:46:35;;;;;;;;;;;;;;;;;;5017425;28;7191;-68
2022/11/30 04:49:00;;;;;;;;;;;;;;;;;;5017270;28;6829;-68
2022/11/30 04:51:26;;;;;;;;;;;;;;;;;;4999659;28;8387;-68
2022/11/30 04:56:55;;;;;;;;;;;;;;;;;;5017002;28;6742;-70
2022/11/30 05:05:26;;;;;;;;;;;;;;;;;;5016861;28;6682;-70
2022/11/30 05:08:08;;;;;;;;;;;;;;;;;;5017311;28;7135;-70
2022/11/30 05:10:33;;;;;;;;;;;;;;;;;;5016372;28;7426;-69
2022/11/30 05:13:08;;;;;;;;;;;;;;;;;;5016563;28;6833;-70
2022/11/30 05:15:34;;;;;;;;;;;;;;;;;;5019477;28;7186;-70
2022/11/30 05:18:00;;;;;;;;;;;;;;;;;;5036577;28;7272;-69
2022/11/30 05:20:47;;;;;;;;;;;;;;;;;;5036582;28;7315;-70
2022/11/30 05:23:12;;;;;;;;;;;;;;;;;;5022374;28;7214;-69
2022/11/30 05:26:06;;;;;;;;;;;;;;;;;;5025595;28;7257;-70
2022/11/30 05:28:32;;;;;;;;;;;;;;;;;;5036112;28;7357;-70
2022/11/30 05:31:01;;;;;;;;;;;;;;;;;;5036053;28;6930;-70
2022/11/30 05:37:01;;;;;;;;;;;;;;;;;;5036249;28;6677;-70
2022/11/30 05:39:27;;;;;;;;;;;;;;;;;;5036937;28;7500;-70
2022/11/30 05:44:55;;;;;;;;;;;;;;;;;;5015434;28;6932;-70
2022/11/30 05:47:21;;;;;;;;;;;;;;;;;;5016356;28;7156;-70
2022/11/30 05:49:46;;;;;;;;;;;;;;;;;;5016110;28;7330;-69
2022/11/30 05:52:35;;;;;;;;;;;;;;;;;;4999691;28;8472;-70
2022/11/30 05:55:01;;;;;;;;;;;;;;;;;;5016264;28;7128;-70
2022/11/30 05:57:26;;;;;;;;;;;;;;;;;;5016137;28;6991;-69
2022/11/30 05:59:52;;;;;;;;;;;;;;;;;;5015919;28;7217;-69
2022/11/30 06:02:26;;;;;;;;;;;;;;;;;;5015995;28;7055;-70
2022/11/30 06:04:51;;;;;;;;;;;;;;;;;;5015717;28;7256;-69
2022/11/30 06:07:17;;;;;;;;;;;;;;;;;;5016671;28;7254;-70
2022/11/30 06:09:42;;;;;;;;;;;;;;;;;;5012127;28;6941;-78
2022/11/30 06:15:11;;;;;;;;;;;;;;;;;;5015609;28;6918;-69
2022/11/30 06:20:40;;;;;;;;;;;;;;;;;;5015446;28;6674;-70
2022/11/30 06:23:05;;;;;;;;;;;;;;;;;;5015498;28;7263;-69
2022/11/30 06:25:31;;;;;;;;;;;;;;;;;;5015530;28;7098;-68
2022/11/30 06:27:56;;;;;;;;;;;;;;;;;;5026026;28;7170;-69
2022/11/30 06:30:22;;;;;;;;;;;;;;;;;;5014666;28;7038;-69
2022/11/30 06:38:47;;;;;;;;;;;;;;;;;;5015611;28;6948;-69
2022/11/30 06:41:12;;;;;;;;;;;;;;;;;;5015157;28;7078;-69
2022/11/30 06:43:50;;;;;;;;;;;;;;;;;;5015225;28;7218;-69
2022/11/30 06:46:15;;;;;;;;;;;;;;;;;;5015622;28;7189;-69
2022/11/30 06:51:47;;;;;;;;;;;;;;;;;;5018446;28;6753;-69
2022/11/30 06:54:12;;;;;;;;;;;;;;;;;;5032539;28;7386;-69
2022/11/30 06:59:41;;;;;;;;;;;;;;;;;;5030241;28;7071;-77
2022/11/30 07:02:17;;;;;;;;;;;;;;;;;;5031956;28;7212;-77
2022/11/30 07:04:43;;;;;;;;;;;;;;;;;;5011958;28;7550;-77
2022/11/30 07:13:30;;;;;;;;;;;;;;;;;;5031249;28;6713;-77
2022/11/30 07:15:56;;;;;;;;;;;;;;;;;;5034423;28;7205;-77
2022/11/30 07:21:24;;;;;;;;;;;;;;;;;;5034427;28;7064;-77
2022/11/30 07:27:03;;;;;;;;;;;;;;;;;;5033780;28;6709;-77
2022/11/30 07:29:29;;;;;;;;;;;;;;;;;;5034121;28;6826;-77
2022/11/30 07:32:07;;;;;;;;;;;;;;;;;;5034346;28;7085;-77
2022/11/30 07:34:32;;;;;;;;;;;;;;;;;;5034197;28;7051;-77
2022/11/30 07:40:15;;;;;;;;;;;;;;;;;;5033289;28;7430;-77
2022/11/30 07:42:41;;;;;;;;;;;;;;;;;;5033637;28;6891;-77
2022/11/30 07:48:22;;;;;;;;;;;;;;;;;;5034221;28;6690;-79
2022/11/30 07:50:48;;;;;;;;;;;;;;;;;;5033789;28;6830;-77
2022/11/30 07:53:32;;;;;;;;;;;;;;;;;;5034435;28;7318;-81
2022/11/30 07:56:06;;;;;;;;;;;;;;;;;;5030062;28;7209;-78
2022/11/30 08:01:49;;;;;;;;;;;;;;;;;;5034020;28;6769;-78
2022/11/30 08:04:15;;;;;;;;;;;;;;;;;;5034043;28;7164;-69
2022/11/30 08:09:44;;;;;;;;;;;;;;;;;;5034114;28;6720;-69
2022/11/30 08:12:15;;;;;;;;;;;;;;;;;;5037814;28;7059;-69
2022/11/30 08:14:41;;;;;;;;;;;;;;;;;;5037428;28;7201;-69
2022/11/30 08:17:20;;;;;;;;;;;;;;;;;;5020072;28;7098;-69
2022/11/30 08:19:45;;;;;;;;;;;;;;;;;;5037254;28;7868;-69
2022/11/30 08:31:32;;;;;;;;;;;;;;;;;;5037283;28;6753;-69
2022/11/30 08:34:01;;;;;;;;;;;;;;;;;;5037774;28;7027;-71
2022/11/30 08:36:51;;;;;;;;;;;;;;;;;;5037916;28;7307;-69
2022/11/30 08:39:16;;;;;;;;;;;;;;;;;;5037494;28;6863;-69
2022/11/30 08:44:43;;;;;;;;;;;;;;;;;;5030734;28;6886;-69
2022/11/30 08:47:09;;;;;;;;;;;;;;;;;;5017450;28;6949;-69
2022/11/30 08:49:34;;;;;;;;;;;;;;;;;;5017019;28;7386;-69
2022/11/30 08:52:29;;;;;;;;;;;;;;;;;;5017336;28;7393;-69
2022/11/30 08:54:55;;;;;;;;;;;;;;;;;;5017160;28;7076;-69
2022/11/30 09:00:26;;;;;;;;;;;;;;;;;;5016862;28;6910;-69
2022/11/30 09:02:51;;;;;;;;;;;;;;;;;;5017007;28;6937;-69
2022/11/30 09:08:19;;;;;;;;;;;;;;;;;;5036212;28;6974;-69
2022/11/30 09:10:45;;;;;;;;;;;;;;;;;;5029430;28;7412;-70
2022/11/30 09:13:13;;;;;;;;;;;;;;;;;;5037033;28;7063;-69
2022/11/30 09:15:41;;;;;;;;;;;;;;;;;;5036494;28;7111;-69
2022/11/30 09:18:07;;;;;;;;;;;;;;;;;;5036400;28;7052;-69
2022/11/30 09:20:34;;;;;;;;;;;;;;;;;;5017278;28;8749;-69
2022/11/30 09:23:00;;;;;;;;;;;;;;;;;;5036445;28;7074;-78
2022/11/30 09:25:26;;;;;;;;;;;;;;;;;;5036194;28;7203;-77
2022/11/30 09:28:10;;;;;;;;;;;;;;;;;;5036523;28;7039;-77
2022/11/30 09:30:36;;;;;;;;;;;;;;;;;;5036203;28;7038;-77
2022/11/30 09:33:01;;;;;;;;;;;;;;;;;;5036325;28;6819;-78
2022/11/30 09:38:30;;;;;;;;;;;;;;;;;;5036042;28;6918;-78
2022/11/30 09:41:00;;;;;;;;;;;;;;;;;;5035830;28;7135;-69
2022/11/30 09:43:44;;;;;;;;;;;;;;;;;;5035868;28;7201;-69
2022/11/30 09:49:20;;;;;;;;;;;;;;;;;;5035791;28;6974;-69
2022/11/30 09:51:48;;;;;;;;;;;;;;;;;;5035890;28;7137;-69
2022/11/30 09:54:22;;;;;;;;;;;;;;;;;;5032824;28;7116;-69
2022/11/30 09:56:49;;;;;;;;;;;;;;;;;;5033555;28;7157;-69
2022/11/30 09:59:21;;;;;;;;;;;;;;;;;;5034423;28;7168;-69
2022/11/30 10:01:52;;;;;;;;;;;;;;;;;;5031838;28;6835;-68
2022/11/30 10:04:25;;;;;;;;;;;;;;;;;;5035369;28;7278;-68
2022/11/30 10:12:57;;;;;;;;;;;;;;;;;;5034912;28;6753;-68
2022/11/30 10:18:30;;;;;;;;;;;;;;;;;;5035525;28;6904;-68
2022/11/30 10:24:27;;;;;;;;;;;;;;;;;;5034998;28;6952;-68
2022/11/30 10:26:55;;;;;;;;;;;;;;;;;;5034305;28;7161;-68
2022/11/30 10:29:43;;;;;;;;;;;;;;;;;;5034986;28;7076;-76
2022/11/30 10:32:13;;;;;;;;;;;;;;;;;;5034879;28;7047;-76
2022/11/30 10:34:52;;;;;;;;;;;;;;;;;;5035064;28;7252;-76
2022/11/30 10:37:21;;;;;;;;;;;;;;;;;;4997273;28;8410;-76
2022/11/30 10:45:59;;;;;;;;;;;;;;;;;;5014908;28;6748;-75
2022/11/30 10:48:34;;;;;;;;;;;;;;;;;;5015810;28;7347;-76
2022/11/30 10:51:27;;;;;;;;;;;;;;;;;;5014967;28;7273;-75
2022/11/30 10:53:52;;;;;;;;;;;;;;;;;;5015422;28;7092;-75
2022/11/30 10:56:54;;;;;;;;;;;;;;;;;;5027702;28;7122;-76
2022/11/30 10:59:19;;;;;;;;;;;;;;;;;;5034643;28;7164;-76
2022/11/30 11:02:10;;;;;;;;;;;;;;;;;;5034519;28;7357;-76
2022/11/30 11:04:36;;;;;;;;;;;;;;;;;;5034617;28;8661;-76
2022/11/30 11:07:19;;;;;;;;;;;;;;;;;;5034381;28;7032;-75
2022/11/30 11:09:51;;;;;;;;;;;;;;;;;;5034510;28;7485;-75
2022/11/30 11:12:24;;;;;;;;;;;;;;;;;;5034650;28;7195;-75
2022/11/30 11:15:07;;;;;;;;;;;;;;;;;;5034677;28;7185;-75
2022/11/30 11:17:45;;;;;;;;;;;;;;;;;;5034942;28;7104;-76
2022/11/30 11:20:31;;;;;;;;;;;;;;;;;;5034716;28;7296;-75
2022/11/30 11:22:57;;;;;;;;;;;;;;;;;;5034645;28;7158;-75
2022/11/30 11:25:42;;;;;;;;;;;;;;;;;;5034410;28;7205;-76
2022/11/30 11:28:17;;;;;;;;;;;;;;;;;;5034229;28;7359;-75
2022/11/30 11:30:44;;;;;;;;;;;;;;;;;;5034504;28;7192;-75
2022/11/30 11:33:10;;;;;;;;;;;;;;;;;;5035702;28;7124;-76
2022/11/30 11:35:38;;;;;;;;;;;;;;;;;;5034477;28;7117;-75
2022/11/30 11:38:25;;;;;;;;;;;;;;;;;;5034507;28;7392;-76
2022/11/30 11:41:06;;;;;;;;;;;;;;;;;;5034527;28;7224;-76
2022/11/30 11:49:38;;;;;;;;;;;;;;;;;;5038044;28;6924;-76
2022/11/30 11:55:15;;;;;;;;;;;;;;;;;;5038001;28;7135;-68
2022/11/30 11:57:46;;;;;;;;;;;;;;;;;;5038473;28;7538;-68
2022/11/30 12:00:19;;;;;;;;;;;;;;;;;;5033316;28;7154;-68
2022/11/30 12:05:54;;;;;;;;;;;;;;;;;;5037706;28;6988;-76
2022/11/30 12:11:47;;;;;;;;;;;;;;;;;;4956865;28;6801;-75
2022/11/30 12:14:15;;;;;;;;;;;;;;;;;;4956939;28;7433;-75
2022/11/30 12:16:55;;;;;;;;;;;;;;;;;;4957252;28;7285;-76
2022/11/30 12:19:33;;;;;;;;;;;;;;;;;;4961659;28;7192;-76
2022/11/30 12:22:12;;;;;;;;;;;;;;;;;;4976441;28;7429;-76
2022/11/30 12:34:03;;;;;;;;;;;;;;;;;;4976917;28;7003;-75
2022/11/30 12:36:47;;;;;;;;;;;;;;;;;;4976644;28;7222;-76
2022/11/30 12:39:41;;;;;;;;;;;;;;;;;;4976527;28;7322;-68
2022/11/30 12:45:04;;;;;;;;;;;;;;;;;;4977429;28;6956;-76
2022/11/30 12:47:52;;;;;;;;;;;;;;;;;;4978474;28;7048;-75
2022/11/30 12:50:21;;;;;;;;;;;;;;;;;;4978347;28;7061;-76
2022/11/30 12:53:00;;;;;;;;;;;;;;;;;;4978352;28;7289;-75
2022/11/30 12:55:31;;;;;;;;;;;;;;;;;;4978153;28;7405;-76
2022/11/30 12:58:05;;;;;;;;;;;;;;;;;;4978114;28;7085;-75
2022/11/30 13:00:53;;;;;;;;;;;;;;;;;;4977623;28;7011;-68
2022/11/30 13:03:41;;;;;;;;;;;;;;;;;;4978697;28;8810;-68
2022/11/30 13:06:22;;;;;;;;;;;;;;;;;;4977989;28;7122;-68
2022/11/30 13:08:59;;;;;;;;;;;;;;;;;;4977618;28;6979;-76
2022/11/30 13:11:36;;;;;;;;;;;;;;;;;;4999566;28;6999;-68
2022/11/30 13:14:11;;;;;;;;;;;;;;;;;;5016600;28;7005;-68
2022/11/30 13:16:38;;;;;;;;;;;;;;;;;;5016555;28;6981;-68
2022/11/30 13:19:34;;;;;;;;;;;;;;;;;;5016464;28;7230;-68
2022/11/30 13:22:04;;;;;;;;;;;;;;;;;;5015214;28;7088;-68
2022/11/30 13:24:41;;;;;;;;;;;;;;;;;;5013814;28;7283;-74
2022/11/30 13:27:14;;;;;;;;;;;;;;;;;;5016211;28;7221;-76
2022/11/30 13:32:33;;;;;;;;;;;;;;;;;;5016890;28;7047;-68
2022/11/30 13:41:07;;;;;;;;;;;;;;;;;;5016241;28;6984;-77
2022/11/30 13:46:47;;;;;;;;;;;;;;;;;;5016779;28;6948;-77
2022/11/30 13:49:19;;;;;;;;;;;;;;;;;;5016799;28;7080;-69
2022/11/30 13:52:20;;;;;;;;;;;;;;;;;;5015839;28;7199;-69
2022/11/30 13:54:53;;;;;;;;;;;;;;;;;;5015804;28;7870;-69
2022/11/30 13:57:40;;;;;;;;;;;;;;;;;;5017155;28;7191;-69
2022/11/30 14:00:25;;;;;;;;;;;;;;;;;;5016364;28;7115;-70
2022/11/30 14:08:49;;;;;;;;;;;;;;;;;;5016123;28;6974;-78
2022/11/30 14:11:34;;;;;;;;;;;;;;;;;;5014793;28;8012;-78
2022/11/30 14:17:12;;;;;;;;;;;;;;;;;;5015527;28;6697;-69
2022/11/30 14:19:42;;;;;;;;;;;;;;;;;;4998001;28;6985;-70
2022/11/30 14:22:10;;;;;;;;;;;;;;;;;;5015646;28;7022;-78
2022/11/30 14:27:54;;;;;;;;;;;;;;;;;;5015329;28;6996;-70
2022/11/30 14:30:22;;;;;;;;;;;;;;;;;;5015006;28;7247;-70
2022/11/30 14:33:10;;;;;;;;;;;;;;;;;;5015128;28;7951;-70
2022/11/30 14:35:39;;;;;;;;;;;;;;;;;;5015441;28;6878;-70
2022/11/30 14:38:31;;;;;;;;;;;;;;;;;;5015615;28;7126;-78
2022/11/30 14:40:57;;;;;;;;;;;;;;;;;;5015399;28;7217;-78
2022/11/30 14:43:23;;;;;;;;;;;;;;;;;;5015171;28;7049;-78
2022/11/30 14:46:13;;;;;;;;;;;;;;;;;;5015007;28;6881;-78
2022/11/30 14:48:38;;;;;;;;;;;;;;;;;;5014999;28;8026;-77
2022/11/30 14:51:04;;;;;;;;;;;;;;;;;;5015152;28;7090;-77
2022/11/30 14:53:35;;;;;;;;;;;;;;;;;;5015231;28;7089;-70
2022/11/30 14:58:45;;;;;;;;;;;;;;;;;;5015366;28;7333;-70
2022/11/30 15:01:31;;;;;;;;;;;;;;;;;;5014991;28;6807;-78
2022/11/30 15:03:59;;;;;;;;;;;;;;;;;;5015060;28;7113;-77
2022/11/30 15:06:38;;;;;;;;;;;;;;;;;;5015006;28;7075;-78
2022/11/30 15:09:04;;;;;;;;;;;;;;;;;;5014717;28;7469;-77
2022/11/30 15:11:30;;;;;;;;;;;;;;;;;;5014315;28;7130;-69
2022/11/30 15:14:05;;;;;;;;;;;;;;;;;;4997190;28;8456;-69
2022/11/30 15:16:31;;;;;;;;;;;;;;;;;;5014916;28;7063;-69
2022/11/30 15:18:58;;;;;;;;;;;;;;;;;;5015052;28;7189;-69
2022/11/30 15:21:25;;;;;;;;;;;;;;;;;;5018953;28;7357;-70
2022/11/30 15:30:00;;;;;;;;;;;;;;;;;;5017734;28;6925;-70
2022/11/30 15:32:26;;;;;;;;;;;;;;;;;;5018536;28;7063;-77
2022/11/30 15:35:02;;;;;;;;;;;;;;;;;;5018383;28;7228;-69
2022/11/30 15:37:33;;;;;;;;;;;;;;;;;;5018695;28;7625;-70
2022/11/30 15:45:55;;;;;;;;;;;;;;;;;;5038339;28;6781;-69
2022/11/30 15:48:31;;;;;;;;;;;;;;;;;;5038220;28;7936;-69
2022/11/30 15:50:57;;;;;;;;;;;;;;;;;;5038014;28;7329;-69
2022/11/30 15:53:48;;;;;;;;;;;;;;;;;;5037751;28;6809;-69
2022/11/30 15:56:25;;;;;;;;;;;;;;;;;;5037699;28;6946;-69
2022/11/30 15:59:16;;;;;;;;;;;;;;;;;;5018973;28;7601;-68
2022/11/30 16:05:10;;;;;;;;;;;;;;;;;;5020772;28;6979;-69
2022/11/30 16:13:30;;;;;;;;;;;;;;;;;;5036729;28;7000;-77
2022/11/30 16:16:22;;;;;;;;;;;;;;;;;;5037424;28;7194;-69
2022/11/30 16:18:48;;;;;;;;;;;;;;;;;;5037144;28;7321;-70
2022/11/30 16:21:37;;;;;;;;;;;;;;;;;;5037655;28;7285;-69
2022/11/30 16:24:03;;;;;;;;;;;;;;;;;;5037752;28;7507;-77
2022/11/30 16:26:29;;;;;;;;;;;;;;;;;;5037507;28;7230;-78
2022/11/30 16:29:03;;;;;;;;;;;;;;;;;;5036669;28;7057;-77
2022/11/30 16:31:45;;;;;;;;;;;;;;;;;;;;;
2022/11/30 16:34:10;;;;;;;;;;;;;;;;;;5029101;28;7309;-77
2022/11/30 16:36:37;;;;;;;;;;;;;;;;;;5035473;28;7166;-77
2022/11/30 16:39:03;;;;;;;;;;;;;;;;;;5036374;28;7459;-77
2022/11/30 16:41:38;;;;;;;;;;;;;;;;;;5037313;28;7305;-77
2022/11/30 16:44:10;;;;;;;;;;;;;;;;;;5036516;28;7231;-78
2022/11/30 16:52:33;;;;;;;;;;;;;;;;;;5037169;28;7024;-70
2022/11/30 16:54:59;;;;;;;;;;;;;;;;;;5036873;28;7177;-77
2022/11/30 16:57:24;;;;;;;;;;;;;;;;;;5037062;28;6907;-77
2022/11/30 16:59:50;;;;;;;;;;;;;;;;;;5036717;28;6910;-77
2022/11/30 17:02:19;;;;;;;;;;;;;;;;;;5036929;28;7080;-78
2022/11/30 17:04:45;;;;;;;;;;;;;;;;;;5036947;28;7003;-77
2022/11/30 17:07:11;;;;;;;;;;;;;;;;;;5036592;28;7402;-69
2022/11/30 17:12:39;;;;;;;;;;;;;;;;;;5033730;28;7892;-77
2022/11/30 17:15:05;;;;;;;;;;;;;;;;;;5036601;28;7226;-77
2022/11/30 17:17:45;;;;;;;;;;;;;;;;;;5037394;28;7194;-70
2022/11/30 17:20:11;;;;;;;;;;;;;;;;;;5036659;28;7027;-77
2022/11/30 17:22:38;;;;;;;;;;;;;;;;;;5036651;28;7445;-70
2022/11/30 17:25:08;;;;;;;;;;;;;;;;;;5037091;28;7251;-77
2022/11/30 17:27:34;;;;;;;;;;;;;;;;;;5036677;28;6986;-76
2022/11/30 17:30:00;;;;;;;;;;;;;;;;;;5036420;28;7017;-69
2022/11/30 17:32:25;;;;;;;;;;;;;;;;;;5036418;28;7214;-70
2022/11/30 17:34:51;;;;;;;;;;;;;;;;;;5036357;28;7038;-70
2022/11/30 17:37:18;;;;;;;;;;;;;;;;;;5036284;28;7099;-70
2022/11/30 17:39:43;;;;;;;;;;;;;;;;;;5036201;28;7179;-69
2022/11/30 17:42:09;;;;;;;;;;;;;;;;;;5035901;28;7284;-69
2022/11/30 17:44:34;;;;;;;;;;;;;;;;;;5036001;28;7071;-78
2022/11/30 17:47:01;;;;;;;;;;;;;;;;;;5036131;28;7374;-69
2022/11/30 17:49:27;;;;;;;;;;;;;;;;;;5036580;28;7172;-77
2022/11/30 17:51:53;;;;;;;;;;;;;;;;;;5035633;28;6966;-77
2022/11/30 17:54:49;;;;;;;;;;;;;;;;;;5036434;28;7434;-69
2022/11/30 17:57:15;;;;;;;;;;;;;;;;;;5019157;28;8636;-77
2022/11/30 17:59:40;;;;;;;;;;;;;;;;;;5015937;28;7194;-77
2022/11/30 18:02:23;;;;;;;;;;;;;;;;;;5016169;28;6910;-69
2022/11/30 18:04:49;;;;;;;;;;;;;;;;;;5015872;28;7043;-69
2022/11/30 18:07:14;;;;;;;;;;;;;;;;;;5015979;28;7015;-69
2022/11/30 18:09:40;;;;;;;;;;;;;;;;;;5015711;28;7024;-69
2022/11/30 18:12:05;;;;;;;;;;;;;;;;;;5015416;28;7101;-69
2022/11/30 18:14:41;;;;;;;;;;;;;;;;;;5015746;28;7011;-69
2022/11/30 18:17:07;;;;;;;;;;;;;;;;;;5015799;28;7204;-77
2022/11/30 18:19:32;;;;;;;;;;;;;;;;;;5015573;28;7250;-77
2022/11/30 18:21:58;;;;;;;;;;;;;;;;;;5015750;28;6951;-78
2022/11/30 18:24:24;;;;;;;;;;;;;;;;;;5015657;28;7217;-69
2022/11/30 18:29:53;;;;;;;;;;;;;;;;;;5015503;28;9061;-69
2022/11/30 18:32:21;;;;;;;;;;;;;;;;;;5015500;28;7348;-77
2022/11/30 18:34:48;;;;;;;;;;;;;;;;;;5016040;28;7087;-70
2022/11/30 18:37:14;;;;;;;;;;;;;;;;;;5015257;28;7887;-69
2022/11/30 18:39:52;;;;;;;;;;;;;;;;;;5015037;28;7006;-69
2022/11/30 18:42:29;;;;;;;;;;;;;;;;;;5015296;28;7253;-69
2022/11/30 18:44:54;;;;;;;;;;;;;;;;;;5014921;28;7428;-69
2022/11/30 18:47:53;;;;;;;;;;;;;;;;;;5016433;28;7141;-69
2022/11/30 18:50:19;;;;;;;;;;;;;;;;;;5014803;28;7162;-69
2022/11/30 18:52:45;;;;;;;;;;;;;;;;;;5015498;28;7497;-69
2022/11/30 18:55:10;;;;;;;;;;;;;;;;;;5015179;28;7030;-70
2022/11/30 18:57:36;;;;;;;;;;;;;;;;;;5015144;28;7175;-69
2022/11/30 19:00:05;;;;;;;;;;;;;;;;;;5014748;28;7892;-69
2022/11/30 19:02:31;;;;;;;;;;;;;;;;;;5014838;28;7830;-69
2022/11/30 19:04:56;;;;;;;;;;;;;;;;;;5014846;28;6998;-68
2022/11/30 19:07:34;;;;;;;;;;;;;;;;;;5015013;28;6785;-69
2022/11/30 19:09:59;;;;;;;;;;;;;;;;;;5014966;28;7176;-69
2022/11/30 19:12:25;;;;;;;;;;;;;;;;;;5010049;28;6966;-69
2022/11/30 19:15:03;;;;;;;;;;;;;;;;;;5014964;28;7381;-69
2022/11/30 19:17:29;;;;;;;;;;;;;;;;;;5014896;28;7130;-69
2022/11/30 19:19:54;;;;;;;;;;;;;;;;;;5014799;28;6809;-77
2022/11/30 19:22:20;;;;;;;;;;;;;;;;;;5015004;28;6988;-77
2022/11/30 19:24:56;;;;;;;;;;;;;;;;;;5014844;28;7211;-76
2022/11/30 19:27:21;;;;;;;;;;;;;;;;;;5014849;28;7242;-76
2022/11/30 19:32:58;;;;;;;;;;;;;;;;;;5014445;28;7400;-75
2022/11/30 19:35:23;;;;;;;;;;;;;;;;;;5014409;28;7198;-76
2022/11/30 19:37:52;;;;;;;;;;;;;;;;;;5031409;28;6841;-76
2022/11/30 19:40:18;;;;;;;;;;;;;;;;;;5034423;28;7204;-77
2022/11/30 19:42:46;;;;;;;;;;;;;;;;;;5034223;28;7122;-76
2022/11/30 19:45:26;;;;;;;;;;;;;;;;;;5034369;28;7021;-76
2022/11/30 19:47:51;;;;;;;;;;;;;;;;;;5034317;28;7429;-76
2022/11/30 19:53:16;;;;;;;;;;;;;;;;;;5034791;28;7047;-76
2022/11/30 19:58:45;;;;;;;;;;;;;;;;;;5034107;28;6983;-77
2022/11/30 20:01:15;;;;;;;;;;;;;;;;;;5034142;28;7526;-77
2022/11/30 20:04:02;;;;;;;;;;;;;;;;;;5034381;28;7066;-76
2022/11/30 20:06:29;;;;;;;;;;;;;;;;;;5038040;28;7041;-76
2022/11/30 20:09:06;;;;;;;;;;;;;;;;;;5038420;28;7170;-77
2022/11/30 20:11:32;;;;;;;;;;;;;;;;;;5037806;28;7164;-76
2022/11/30 20:13:59;;;;;;;;;;;;;;;;;;5037206;28;7436;-77
2022/11/30 20:16:26;;;;;;;;;;;;;;;;;;5037806;28;7387;-77
2022/11/30 20:18:56;;;;;;;;;;;;;;;;;;5036279;28;8741;-76
2022/11/30 20:21:31;;;;;;;;;;;;;;;;;;5037514;28;7085;-76
2022/11/30 20:23:58;;;;;;;;;;;;;;;;;;5037032;28;7222;-77
2022/11/30 20:26:29;;;;;;;;;;;;;;;;;;5037238;28;6935;-76
2022/11/30 20:28:55;;;;;;;;;;;;;;;;;;5037430;28;7328;-78
2022/11/30 20:31:22;;;;;;;;;;;;;;;;;;5037470;28;7000;-76
2022/11/30 20:33:48;;;;;;;;;;;;;;;;;;5037388;28;6996;-76
2022/11/30 20:36:16;;;;;;;;;;;;;;;;;;5037453;28;7407;-76
2022/11/30 20:41:45;;;;;;;;;;;;;;;;;;5037237;28;6753;-76
2022/11/30 20:44:14;;;;;;;;;;;;;;;;;;5037090;28;7177;-77
2022/11/30 20:46:40;;;;;;;;;;;;;;;;;;5031549;28;7045;-70
2022/11/30 20:49:12;;;;;;;;;;;;;;;;;;5016569;28;8490;-70
2022/11/30 20:51:47;;;;;;;;;;;;;;;;;;5020506;28;7190;-70
2022/11/30 20:54:14;;;;;;;;;;;;;;;;;;5037131;28;7194;-70
2022/11/30 20:56:57;;;;;;;;;;;;;;;;;;5037223;28;7051;-70
2022/11/30 20:59:25;;;;;;;;;;;;;;;;;;5036984;28;7138;-70
2022/11/30 21:02:20;;;;;;;;;;;;;;;;;;5036995;28;6938;-70
2022/11/30 21:04:45;;;;;;;;;;;;;;;;;;5019300;28;8447;-70
2022/11/30 21:07:11;;;;;;;;;;;;;;;;;;5004001;28;8620;-70
2022/11/30 21:12:39;;;;;;;;;;;;;;;;;;4997204;28;6989;-70
2022/11/30 21:15:05;;;;;;;;;;;;;;;;;;4997819;28;7263;-69
2022/11/30 21:17:55;;;;;;;;;;;;;;;;;;4996321;28;7183;-69
2022/11/30 21:20:23;;;;;;;;;;;;;;;;;;4997259;28;7167;-70
2022/11/30 21:22:49;;;;;;;;;;;;;;;;;;4998108;28;6981;-70
2022/11/30 21:25:15;;;;;;;;;;;;;;;;;;4996883;28;6912;-70
2022/11/30 21:27:41;;;;;;;;;;;;;;;;;;5012093;28;8885;-70
2022/11/30 21:30:07;;;;;;;;;;;;;;;;;;4997096;28;7054;-70
2022/11/30 21:32:32;;;;;;;;;;;;;;;;;;4997002;28;7136;-70
2022/11/30 21:38:33;;;;;;;;;;;;;;;;;;4996737;28;6671;-77
2022/11/30 21:41:00;;;;;;;;;;;;;;;;;;4996561;28;8854;-77
2022/11/30 21:46:36;;;;;;;;;;;;;;;;;;4996730;28;6679;-77
2022/11/30 21:49:02;;;;;;;;;;;;;;;;;;4996393;28;7464;-77
2022/11/30 21:54:34;;;;;;;;;;;;;;;;;;4996469;28;6930;-78
2022/11/30 22:00:03;;;;;;;;;;;;;;;;;;4996284;28;6687;-78